createdAt,value
2022-10-22T00:15:26.857Z,67.80
2022-10-22T00:18:58.438Z,67.75
2022-10-22T00:22:45.375Z,67.80
2022-10-22T01:02:18.688Z,68.64
2022-10-22T01:15:50.623Z,69.13
2022-10-22T01:19:47.427Z,69.12
2022-10-22T01:24:07.662Z,69.22
2022-10-22T01:40:09.164Z,70.07
2022-10-22T01:43:47.584Z,69.90
2022-10-22T01:47:22.391Z,70.02
2022-10-22T02:02:58.275Z,71.95
2022-10-22T02:06:39.374Z,71.72
2022-10-22T02:10:03.183Z,71.95
2022-10-22T02:14:03.486Z,72.03
2022-10-22T02:29:21.587Z,73.03
2022-10-22T02:33:29.385Z,73.81
2022-10-22T02:37:25.644Z,73.07
2022-10-22T02:40:55.461Z,72.75
2022-10-22T02:52:39.068Z,73.77
2022-10-22T03:34:47.784Z,77.69
2022-10-22T03:42:25.441Z,78.37
2022-10-22T03:45:33.573Z,79.14
2022-10-22T03:48:48.331Z,78.88
2022-10-22T03:51:56.363Z,79.16
2022-10-22T03:55:05.785Z,78.92
2022-10-22T03:58:21.407Z,78.69
2022-10-22T04:01:49.623Z,79.01
2022-10-22T04:05:25.232Z,78.64
2022-10-22T04:08:53.654Z,78.07
2022-10-22T04:12:21.695Z,76.82
2022-10-22T04:15:49.333Z,76.23
2022-10-22T04:18:59.194Z,76.62
2022-10-22T04:22:07.458Z,77.31
2022-10-22T04:25:22.379Z,77.72
2022-10-22T04:28:26.787Z,78.08
2022-10-22T04:31:41.350Z,77.55
2022-10-22T04:34:43.515Z,77.15
2022-10-22T04:37:59.395Z,77.04
2022-10-22T04:41:09.576Z,76.46
2022-10-22T04:44:37.667Z,76.02
2022-10-22T04:47:52.470Z,76.20
2022-10-22T04:51:00.414Z,76.33
2022-10-22T04:54:08.838Z,76.57
2022-10-22T04:57:17.379Z,76.60
2022-10-22T05:08:23.450Z,78.42
2022-10-22T05:12:02.396Z,78.49
2022-10-22T05:15:49.419Z,79.08
2022-10-22T05:19:22.359Z,78.92
2022-10-22T05:23:02.194Z,78.66
2022-10-22T05:26:30.403Z,80.28
2022-10-22T05:30:05.698Z,80.84
2022-10-22T05:33:35.517Z,81.12
2022-10-22T05:37:04.047Z,81.70
2022-10-22T05:40:52.420Z,81.71
2022-10-22T05:44:27.363Z,81.77
2022-10-22T05:47:49.779Z,82.74
2022-10-22T05:51:08.372Z,81.97
2022-10-22T05:54:23.359Z,81.13
2022-10-22T05:57:32.009Z,81.43
2022-10-22T06:00:47.348Z,80.03
2022-10-22T06:03:51.576Z,79.34
2022-10-22T06:07:07.588Z,79.98
2022-10-22T06:10:23.461Z,78.45
2022-10-22T06:14:18.407Z,77.94
2022-10-22T06:18:07.167Z,77.22
2022-10-22T06:21:36.424Z,76.25
2022-10-22T06:25:30.379Z,75.90
2022-10-22T06:28:39.377Z,75.56
2022-10-22T06:31:47.367Z,75.30
2022-10-22T06:35:19.016Z,76.29
2022-10-22T06:38:33.400Z,75.75
2022-10-22T06:42:01.440Z,74.64
2022-10-22T06:45:10.554Z,73.94
2022-10-22T06:48:18.643Z,74.02
2022-10-22T06:51:27.478Z,74.04
2022-10-22T06:54:42.624Z,73.14
2022-10-22T06:57:44.746Z,73.05
2022-10-22T07:01:22.721Z,71.78
2022-10-22T07:05:10.442Z,70.61
2022-10-22T07:08:53.549Z,69.96
2022-10-22T07:24:32.938Z,69.98
2022-10-22T07:27:41.658Z,70.47
2022-10-22T07:30:50.237Z,70.94
2022-10-22T07:37:47.876Z,70.62
2022-10-22T07:41:16.474Z,69.59
2022-10-22T07:45:10.748Z,69.34
2022-10-22T07:48:58.402Z,67.31
2022-10-22T07:56:52.435Z,65.40
2022-10-22T08:00:24.604Z,64.91
2022-10-22T08:03:34.443Z,64.04
2022-10-22T08:06:45.812Z,62.32
2022-10-22T08:10:03.423Z,61.24
2022-10-22T08:13:45.641Z,61.66
2022-10-22T08:17:32.774Z,60.44
2022-10-22T08:21:21.028Z,59.86
2022-10-22T08:25:09.612Z,58.96
2022-10-22T08:28:58.448Z,56.77
2022-10-22T08:32:54.138Z,54.84
2022-10-22T08:40:01.432Z,53.29
2022-10-22T08:44:18.240Z,54.24
2022-10-22T08:48:15.870Z,55.95
2022-10-22T08:51:50.703Z,56.32
2022-10-22T08:55:02.404Z,58.01
2022-10-22T09:26:20.440Z,60.40
2022-10-22T09:29:35.632Z,60.65
2022-10-22T09:32:50.434Z,59.41
2022-10-22T09:35:58.526Z,59.37
2022-10-22T09:39:43.703Z,59.12
2022-10-22T09:43:29.346Z,58.72
2022-10-22T09:55:20.227Z,58.89
2022-10-22T09:59:26.488Z,58.93
2022-10-22T10:03:03.500Z,59.14
2022-10-22T10:06:25.206Z,58.08
2022-10-22T10:22:25.715Z,58.46
2022-10-22T10:54:50.544Z,58.05
2022-10-22T10:58:36.800Z,58.30
2022-10-22T11:06:34.252Z,58.37
2022-10-22T11:10:20.600Z,58.53
2022-10-22T11:18:10.203Z,57.90
2022-10-22T11:21:55.879Z,58.06
2022-10-22T11:25:46.666Z,58.47
2022-10-22T11:29:32.831Z,60.13
2022-10-22T11:33:14.266Z,60.10
2022-10-22T11:36:49.800Z,59.83
2022-10-22T11:40:08.655Z,60.85
2022-10-22T11:44:13.791Z,60.24
2022-10-22T11:56:36.467Z,61.23
2022-10-22T11:59:51.819Z,60.73
2022-10-22T12:03:10.758Z,61.41
2022-10-22T12:06:22.537Z,60.67
2022-10-22T12:09:58.494Z,60.22
2022-10-22T12:13:23.473Z,60.00
2022-10-22T12:17:02.523Z,60.42
2022-10-22T12:20:20.485Z,61.73
2022-10-22T12:23:40.467Z,60.77
2022-10-22T12:26:55.721Z,60.80
2022-10-22T12:29:59.657Z,61.80
2022-10-22T12:33:26.559Z,62.08
2022-10-22T12:36:36.472Z,62.63
2022-10-22T12:39:52.504Z,63.89
2022-10-22T12:42:57.648Z,64.49
2022-10-22T12:46:18.506Z,63.68
2022-10-22T12:49:29.519Z,64.03
2022-10-22T12:52:38.383Z,64.69
2022-10-22T12:55:46.490Z,64.93
2022-10-22T13:17:46.592Z,65.71
2022-10-22T13:29:21.674Z,65.86
2022-10-22T13:37:04.627Z,65.95
2022-10-22T13:48:21.522Z,62.60
2022-10-22T13:51:33.811Z,62.20
2022-10-22T13:54:41.500Z,62.40
2022-10-22T13:57:50.506Z,62.85
2022-10-22T14:01:42.841Z,62.72
2022-10-22T14:09:11.666Z,62.11
2022-10-22T14:12:26.916Z,62.19
2022-10-22T14:15:52.603Z,61.99
2022-10-22T14:19:14.456Z,62.27
2022-10-22T14:22:31.813Z,62.42
2022-10-22T14:25:53.536Z,62.02
2022-10-22T14:29:11.510Z,62.39
2022-10-22T14:32:47.996Z,62.88
2022-10-22T14:36:04.770Z,63.05
2022-10-22T14:47:52.524Z,63.93
2022-10-22T14:51:10.965Z,64.33
2022-10-22T14:58:32.721Z,65.34
2022-10-22T15:01:41.163Z,65.46
2022-10-22T15:04:49.645Z,65.82
2022-10-22T15:08:05.709Z,66.05
2022-10-22T15:11:12.011Z,66.65
2022-10-22T15:14:26.567Z,67.13
2022-10-22T15:17:28.372Z,67.12
2022-10-22T15:20:42.700Z,68.01
2022-10-22T15:23:51.551Z,67.92
2022-10-22T15:27:00.275Z,68.49
2022-10-22T15:30:14.558Z,69.01
2022-10-22T15:33:16.592Z,70.03
2022-10-22T15:37:04.179Z,70.93
2022-10-22T15:40:52.567Z,71.52
2022-10-22T15:44:24.064Z,72.02
2022-10-22T15:47:56.778Z,74.07
2022-10-22T15:51:51.533Z,75.19
2022-10-22T15:55:03.125Z,76.25
2022-10-22T15:58:14.616Z,75.83
2022-10-22T16:01:31.741Z,78.08
2022-10-22T16:04:39.642Z,80.75
2022-10-22T16:07:48.179Z,82.61
2022-10-22T16:11:02.534Z,82.42
2022-10-22T16:14:12.607Z,84.03
2022-10-22T16:17:21.097Z,85.03
2022-10-22T16:20:35.574Z,86.20
2022-10-22T16:23:37.475Z,88.55
2022-10-22T16:26:54.575Z,90.09
2022-10-22T16:29:56.382Z,90.99
2022-10-22T16:33:12.620Z,92.18
2022-10-22T16:36:17.514Z,93.09
2022-10-22T16:39:33.567Z,92.84
2022-10-22T16:42:44.571Z,94.20
2022-10-22T16:45:53.224Z,94.95
2022-10-22T16:49:02.614Z,96.14
2022-10-22T16:52:17.602Z,95.05
2022-10-22T16:55:32.584Z,94.64
2022-10-22T16:58:47.455Z,95.45
2022-10-22T17:01:55.638Z,95.72
2022-10-22T17:05:11.557Z,95.72
2022-10-22T17:08:19.644Z,96.06
2022-10-22T17:11:28.368Z,95.24
2022-10-22T17:14:42.735Z,95.28
2022-10-22T17:17:51.584Z,95.36
2022-10-22T17:21:01.161Z,95.79
2022-10-22T17:24:16.569Z,98.58
2022-10-22T17:27:18.612Z,99.66
2022-10-22T17:30:34.684Z,100.00
2022-10-22T17:33:43.563Z,100.00
2022-10-22T17:36:55.200Z,99.55
2022-10-22T17:40:04.619Z,99.07
2022-10-22T17:43:14.507Z,99.39
2022-10-22T17:46:27.578Z,100.00
2022-10-22T17:49:42.863Z,100.00
2022-10-22T17:52:51.666Z,100.00
2022-10-22T17:56:08.571Z,100.00
2022-10-22T17:59:19.648Z,100.00
2022-10-22T18:02:34.660Z,100.00
2022-10-22T18:05:36.544Z,100.00
2022-10-22T18:11:54.827Z,100.00
2022-10-22T18:15:09.654Z,100.00
2022-10-22T18:18:11.803Z,100.00
2022-10-22T18:21:28.658Z,100.00
2022-10-22T18:24:37.616Z,100.00
2022-10-22T18:27:47.904Z,100.00
2022-10-22T18:31:04.604Z,100.00
2022-10-22T18:34:14.720Z,100.00
2022-10-22T18:37:24.607Z,100.00
2022-10-22T18:40:34.547Z,100.00
2022-10-22T18:43:43.608Z,100.00
2022-10-22T18:46:52.404Z,100.00
2022-10-22T18:50:07.675Z,100.00
2022-10-22T18:53:17.378Z,100.00
2022-10-22T18:56:27.703Z,100.00
2022-10-22T18:59:49.624Z,100.00
2022-10-22T19:03:04.915Z,100.00
2022-10-22T19:06:15.721Z,100.00
2022-10-22T19:09:23.704Z,100.00
2022-10-22T19:12:39.607Z,100.00
2022-10-22T19:15:48.348Z,100.00
2022-10-22T19:19:10.666Z,100.00
2022-10-22T19:22:20.141Z,100.00
2022-10-22T19:25:34.612Z,100.00
2022-10-22T19:28:50.612Z,100.00
2022-10-22T19:31:59.821Z,100.00
2022-10-22T19:35:08.630Z,100.00
2022-10-22T19:38:17.346Z,100.00
2022-10-22T19:41:27.614Z,100.00
2022-10-22T19:44:37.278Z,100.00
2022-10-22T19:47:46.648Z,100.00
2022-10-22T19:51:04.975Z,100.00
2022-10-22T19:54:19.619Z,100.00
2022-10-22T19:57:29.393Z,100.00
2022-10-22T20:00:39.694Z,100.00
2022-10-22T20:03:51.497Z,100.00
2022-10-22T20:07:01.640Z,100.00
2022-10-22T20:10:16.631Z,100.00
2022-10-22T20:13:25.494Z,100.00
2022-10-22T20:16:35.615Z,100.00
2022-10-22T20:19:44.791Z,100.00
2022-10-22T20:23:00.697Z,100.00
2022-10-22T20:26:16.683Z,100.00
2022-10-22T20:29:18.492Z,100.00
2022-10-22T20:32:32.680Z,100.00
2022-10-22T20:35:48.865Z,100.00
2022-10-22T20:39:04.964Z,100.00
2022-10-22T20:42:13.632Z,100.00
2022-10-22T20:45:23.396Z,100.00
2022-10-22T20:48:32.659Z,100.00
2022-10-22T20:51:47.899Z,100.00
2022-10-22T20:54:55.711Z,100.00
2022-10-22T20:58:04.452Z,100.00
2022-10-22T21:01:12.675Z,100.00
2022-10-22T21:04:28.684Z,100.00
2022-10-22T21:07:43.950Z,100.00
2022-10-22T21:10:58.718Z,100.00
2022-10-22T21:14:00.328Z,100.00
2022-10-22T21:17:14.675Z,100.00
2022-10-22T21:20:17.858Z,100.00
2022-10-22T21:23:34.639Z,100.00
2022-10-22T21:26:43.703Z,100.00
2022-10-22T21:29:58.650Z,100.00
2022-10-22T21:33:07.258Z,100.00
2022-10-22T21:36:23.189Z,100.00
2022-10-22T21:39:24.932Z,100.00
2022-10-22T21:42:39.648Z,100.00
2022-10-22T21:45:41.408Z,100.00
2022-10-22T21:49:00.695Z,100.00
2022-10-22T21:52:15.712Z,100.00
2022-10-22T21:55:24.632Z,100.00
2022-10-22T21:58:42.667Z,100.00
2022-10-22T22:01:51.195Z,100.00
2022-10-22T22:05:05.651Z,100.00
2022-10-22T22:08:13.715Z,100.00
2022-10-22T22:11:24.951Z,100.00
2022-10-22T22:14:32.720Z,100.00
2022-10-22T22:17:45.856Z,100.00
2022-10-22T22:20:53.655Z,100.00
2022-10-22T22:24:02.469Z,100.00
2022-10-22T22:27:10.753Z,100.00
2022-10-22T22:30:19.310Z,100.00
2022-10-22T22:33:28.655Z,100.00
2022-10-22T22:36:46.690Z,100.00
2022-10-22T22:39:48.488Z,100.00
2022-10-22T22:43:02.705Z,100.00
2022-10-22T22:46:06.910Z,100.00
2022-10-22T22:49:21.739Z,100.00
2022-10-22T22:52:23.374Z,100.00
2022-10-22T22:55:37.660Z,100.00
2022-10-22T22:58:40.958Z,100.00
2022-10-22T23:01:56.709Z,100.00
2022-10-22T23:04:58.310Z,100.00
2022-10-22T23:08:14.663Z,100.00
2022-10-22T23:11:22.700Z,100.00
2022-10-22T23:14:37.679Z,100.00
2022-10-22T23:17:45.687Z,100.00
2022-10-22T23:20:54.402Z,100.00
2022-10-22T23:24:05.672Z,100.00
2022-10-22T23:27:20.683Z,100.00
2022-10-22T23:30:28.683Z,100.00
2022-10-22T23:33:37.180Z,100.00
2022-10-22T23:36:52.670Z,100.00
2022-10-22T23:40:00.671Z,100.00
2022-10-22T23:43:16.767Z,100.00
2022-10-22T23:46:18.435Z,100.00
2022-10-22T23:49:32.696Z,100.00
2022-10-22T23:52:34.300Z,100.00
2022-10-22T23:55:49.734Z,100.00
2022-10-22T23:58:52.171Z,100.00
